Dublin, Ireland
Current Conditions -  °F | °C
As of 12:00 AM on Tuesday 23 Dec 2014 (Local Time) from EIDW Reporting Station
Broken Clouds Broken Clouds  
Wind Chill: 52°   Ceiling: 1400
Heat Index: 52°   Visibility: 6mi
Dew Point: 48°   Wind: 24mph
Humidity: 88%   Direction: 230°SW
Pressure: 29.83"   Gusts: NA
Location:  53.33°N, 6.25°W
Report Text: EIDW 230000Z 23021KT 9999 FEW008 SCT011 BKN014 11/09 Q1010 TEMPO 4000 BKN007
Loading
Personal Weather Stations






























Interactive Weather Map New forecast layout! Learn more

10-Day Weather Forecast

Advertisements
Track Severe Weather on mobile